createdAt,value
2023-11-14T00:00:06.509Z,4.38
2023-11-14T00:02:34.711Z,4.48
2023-11-14T00:05:02.164Z,4.44
2023-11-14T00:07:30.005Z,4.37
2023-11-14T00:09:57.344Z,4.50
2023-11-14T00:12:25.908Z,4.27
2023-11-14T00:14:53.360Z,4.52
2023-11-14T00:17:21.652Z,4.90
2023-11-14T00:19:49.145Z,4.50
2023-11-14T00:22:16.887Z,4.43
2023-11-14T00:24:44.312Z,4.47
2023-11-14T00:27:13.286Z,4.55
2023-11-14T00:29:40.734Z,4.69
2023-11-14T00:32:08.742Z,4.55
2023-11-14T00:34:36.809Z,4.42
2023-11-14T00:37:06.105Z,4.56
2023-11-14T00:39:33.471Z,4.51
2023-11-14T00:42:01.210Z,4.52
2023-11-14T00:44:28.610Z,4.11
2023-11-14T00:46:56.513Z,4.18
2023-11-14T00:49:24.057Z,4.17
2023-11-14T00:51:51.687Z,4.06
2023-11-14T00:54:19.341Z,4.12
2023-11-14T00:56:47.004Z,4.15
2023-11-14T00:59:16.310Z,4.36
2023-11-14T01:01:44.068Z,4.01
2023-11-14T01:04:13.744Z,4.28
2023-11-14T01:06:41.668Z,4.32
2023-11-14T01:09:10.835Z,4.03
2023-11-14T01:11:39.025Z,4.33
2023-11-14T01:14:06.629Z,4.05
2023-11-14T01:16:34.385Z,4.06
2023-11-14T01:19:02.573Z,4.33
2023-11-14T01:21:30.546Z,4.03
2023-11-14T01:23:58.012Z,3.96
2023-11-14T01:26:25.917Z,3.83
2023-11-14T01:28:53.401Z,3.85
2023-11-14T01:31:23.016Z,3.67
2023-11-14T01:33:51.679Z,3.44
2023-11-14T01:36:19.428Z,3.46
2023-11-14T01:38:47.006Z,3.51
2023-11-14T01:41:14.754Z,3.14
2023-11-14T01:43:48.810Z,3.07
2023-11-14T01:46:19.618Z,2.84
2023-11-14T01:48:50.159Z,3.01
2023-11-14T01:51:19.697Z,2.98
2023-11-14T01:53:51.597Z,3.02
2023-11-14T01:56:20.829Z,3.33
2023-11-14T01:58:51.069Z,3.47
2023-11-14T02:01:20.293Z,3.10
2023-11-14T02:03:47.785Z,3.47
2023-11-14T02:06:15.870Z,3.25
2023-11-14T02:08:43.302Z,3.03
2023-11-14T02:11:11.171Z,3.19
2023-11-14T02:13:39.865Z,3.61
2023-11-14T02:16:07.854Z,3.53
2023-11-14T02:18:35.178Z,3.30
2023-11-14T02:21:02.927Z,3.51
2023-11-14T02:23:36.869Z,3.40
2023-11-14T02:26:05.896Z,3.70
2023-11-14T02:28:33.364Z,3.61
2023-11-14T02:31:03.055Z,3.51
2023-11-14T02:33:30.446Z,3.50
2023-11-14T02:35:58.039Z,3.49
2023-11-14T02:38:26.124Z,3.25
2023-11-14T02:40:53.868Z,3.36
2023-11-14T02:43:21.968Z,3.47
2023-11-14T02:45:49.734Z,3.38
2023-11-14T02:48:17.143Z,3.40
2023-11-14T02:50:57.089Z,3.48
2023-11-14T02:53:24.977Z,3.41
2023-11-14T02:55:53.457Z,3.22
2023-11-14T02:58:20.973Z,3.17
2023-11-14T03:00:50.549Z,3.32
2023-11-14T03:03:18.820Z,3.31
2023-11-14T03:05:46.975Z,3.50
2023-11-14T03:08:14.472Z,3.71
2023-11-14T03:10:42.907Z,3.44
2023-11-14T03:13:10.593Z,3.26
2023-11-14T03:15:38.710Z,3.34
2023-11-14T03:18:07.488Z,3.51
2023-11-14T03:20:35.852Z,3.59
2023-11-14T03:23:05.004Z,3.50
2023-11-14T03:25:33.383Z,3.30
2023-11-14T03:28:02.730Z,3.44
2023-11-14T03:30:30.916Z,3.18
2023-11-14T03:32:58.617Z,3.14
2023-11-14T03:35:28.051Z,3.39
2023-11-14T03:37:55.521Z,3.26
2023-11-14T03:40:23.523Z,3.39
2023-11-14T03:42:51.687Z,3.55
2023-11-14T03:45:19.462Z,3.29
2023-11-14T03:47:46.822Z,3.50
2023-11-14T03:50:14.572Z,3.08
2023-11-14T03:52:42.360Z,3.36
2023-11-14T03:55:10.381Z,3.13
2023-11-14T03:57:37.718Z,3.61
2023-11-14T04:00:12.587Z,3.56
2023-11-14T04:02:43.333Z,3.42
2023-11-14T04:05:11.219Z,3.33
2023-11-14T04:07:38.831Z,3.44
2023-11-14T04:10:08.717Z,3.19
2023-11-14T04:12:36.415Z,3.08
2023-11-14T04:15:04.868Z,3.43
2023-11-14T04:17:33.377Z,3.16
2023-11-14T04:20:01.270Z,3.35
2023-11-14T04:22:28.856Z,3.23
2023-11-14T04:24:57.199Z,3.44
2023-11-14T04:27:24.648Z,3.57
2023-11-14T04:29:52.361Z,3.61
2023-11-14T04:32:20.749Z,3.30
2023-11-14T04:34:48.936Z,3.16
2023-11-14T04:37:16.350Z,3.55
2023-11-14T04:39:46.119Z,3.55
2023-11-14T04:42:13.544Z,3.59
2023-11-14T04:44:41.250Z,3.45
2023-11-14T04:47:09.224Z,3.49
2023-11-14T04:49:38.006Z,3.81
2023-11-14T04:52:05.947Z,3.68
2023-11-14T04:54:33.676Z,3.63
2023-11-14T04:57:01.139Z,3.36
2023-11-14T04:59:28.909Z,3.35
2023-11-14T05:01:56.410Z,3.42
2023-11-14T05:04:24.130Z,3.71
2023-11-14T05:06:51.515Z,3.97
2023-11-14T05:09:19.316Z,3.34
2023-11-14T05:11:46.763Z,3.71
2023-11-14T05:14:14.485Z,3.71
2023-11-14T05:16:42.962Z,4.05
2023-11-14T05:19:11.219Z,3.80
2023-11-14T05:21:39.357Z,3.71
2023-11-14T05:24:10.479Z,4.00
2023-11-14T05:26:37.850Z,3.58
2023-11-14T05:29:08.222Z,3.63
2023-11-14T05:31:36.444Z,3.49
2023-11-14T05:34:04.698Z,3.42
2023-11-14T05:36:32.311Z,3.87
2023-11-14T05:39:00.097Z,3.66
2023-11-14T05:41:27.477Z,3.52
2023-11-14T05:43:55.170Z,3.70
2023-11-14T05:46:22.529Z,3.66
2023-11-14T05:48:50.318Z,4.16
2023-11-14T05:51:18.021Z,3.54
2023-11-14T05:53:46.481Z,3.60
2023-11-14T05:56:14.098Z,4.14
2023-11-14T05:58:42.050Z,3.74
2023-11-14T06:01:11.377Z,3.88
2023-11-14T06:03:39.370Z,3.78
2023-11-14T06:06:07.148Z,4.01
2023-11-14T06:08:35.303Z,4.35
2023-11-14T06:11:03.148Z,3.77
2023-11-14T06:13:30.965Z,3.76
2023-11-14T06:15:58.393Z,4.11
2023-11-14T06:18:30.973Z,4.35
2023-11-14T06:21:00.559Z,3.93
2023-11-14T06:23:29.016Z,4.18
2023-11-14T06:25:57.705Z,3.78
2023-11-14T06:28:25.753Z,3.78
2023-11-14T06:30:53.281Z,3.73
2023-11-14T06:33:20.982Z,3.78
2023-11-14T06:35:49.014Z,4.10
2023-11-14T06:38:16.817Z,3.89
2023-11-14T06:40:46.821Z,3.74
2023-11-14T06:43:15.031Z,4.01
2023-11-14T06:45:43.555Z,3.81
2023-11-14T06:48:11.329Z,4.04
2023-11-14T06:50:44.584Z,4.14
2023-11-14T06:53:13.449Z,4.64
2023-11-14T06:55:41.524Z,4.81
2023-11-14T06:58:09.379Z,4.31
2023-11-14T07:00:36.917Z,4.26
2023-11-14T07:03:05.102Z,4.35
2023-11-14T07:05:32.678Z,4.48
2023-11-14T07:08:01.773Z,4.39
2023-11-14T07:10:31.882Z,4.65
2023-11-14T07:12:59.720Z,4.63
2023-11-14T07:15:28.953Z,4.54
2023-11-14T07:17:56.942Z,4.88
2023-11-14T07:20:25.614Z,5.06
2023-11-14T07:22:53.703Z,5.04
2023-11-14T07:25:21.285Z,4.76
2023-11-14T07:27:50.942Z,4.61
2023-11-14T07:30:18.807Z,4.06
2023-11-14T07:32:46.933Z,4.55
2023-11-14T07:35:14.565Z,4.82
2023-11-14T07:37:42.368Z,4.89
2023-11-14T07:40:10.468Z,4.51
2023-11-14T07:42:38.342Z,4.74
2023-11-14T07:45:11.154Z,4.69
2023-11-14T07:47:41.191Z,4.92
2023-11-14T07:50:08.875Z,4.61
2023-11-14T07:52:36.615Z,4.68
2023-11-14T07:55:04.810Z,4.54
2023-11-14T07:57:33.512Z,4.76
2023-11-14T08:00:00.943Z,4.43
2023-11-14T08:02:29.001Z,4.53
2023-11-14T08:04:56.548Z,4.60
2023-11-14T08:07:24.451Z,5.05
2023-11-14T08:09:51.851Z,5.11
2023-11-14T08:12:19.738Z,5.23
2023-11-14T08:14:47.285Z,4.80
2023-11-14T08:17:16.032Z,5.07
2023-11-14T08:19:44.068Z,5.00
2023-11-14T08:22:13.035Z,5.02
2023-11-14T08:24:40.544Z,4.71
2023-11-14T08:27:08.457Z,4.67
2023-11-14T08:29:39.798Z,4.86
2023-11-14T08:32:09.847Z,4.57
2023-11-14T08:34:37.801Z,4.99
2023-11-14T08:37:05.485Z,4.81
2023-11-14T08:39:32.939Z,4.71
2023-11-14T08:42:00.771Z,5.04
2023-11-14T08:44:28.469Z,4.95
2023-11-14T08:46:56.265Z,4.76
2023-11-14T08:49:23.995Z,5.14
2023-11-14T08:51:52.337Z,5.00
2023-11-14T08:54:19.661Z,4.91
2023-11-14T08:56:47.439Z,5.29
2023-11-14T08:59:16.750Z,4.91
2023-11-14T09:01:46.258Z,5.27
2023-11-14T09:04:13.860Z,5.07
2023-11-14T09:06:42.043Z,4.87
2023-11-14T09:09:09.959Z,5.12
2023-11-14T09:11:39.312Z,5.54
2023-11-14T09:14:07.125Z,5.37
2023-11-14T09:16:34.769Z,5.44
2023-11-14T09:19:02.361Z,5.33
2023-11-14T09:21:30.484Z,5.20
2023-11-14T09:23:58.917Z,5.11
2023-11-14T09:26:26.658Z,5.19
2023-11-14T09:28:54.484Z,5.52
2023-11-14T09:31:22.464Z,5.72
2023-11-14T09:33:50.791Z,5.34
2023-11-14T09:36:18.534Z,5.54
2023-11-14T09:38:45.989Z,5.44
2023-11-14T09:41:13.865Z,5.37
2023-11-14T09:43:42.268Z,5.34
2023-11-14T09:46:13.558Z,5.48
2023-11-14T09:48:41.529Z,5.58
2023-11-14T09:51:10.814Z,5.46
2023-11-14T09:53:40.254Z,5.96
2023-11-14T09:56:08.733Z,5.91
2023-11-14T09:58:36.098Z,5.54
2023-11-14T10:01:04.034Z,5.75
2023-11-14T10:03:33.210Z,5.75
2023-11-14T10:06:00.972Z,5.97
2023-11-14T10:08:28.632Z,5.91
2023-11-14T10:11:10.836Z,6.57
2023-11-14T10:13:39.622Z,6.14
2023-11-14T10:16:17.940Z,6.00
2023-11-14T10:18:49.726Z,5.90
2023-11-14T10:21:26.686Z,5.75
2023-11-14T10:23:56.474Z,6.03
2023-11-14T10:26:25.478Z,5.97
2023-11-14T10:29:01.940Z,6.47
2023-11-14T10:31:41.360Z,6.46
2023-11-14T10:34:27.272Z,6.40
2023-11-14T10:36:56.708Z,6.81
2023-11-14T10:39:25.585Z,6.58
2023-11-14T10:41:53.987Z,6.50
2023-11-14T10:44:22.669Z,6.59
2023-11-14T10:46:55.407Z,6.92
2023-11-14T10:49:24.818Z,7.15
2023-11-14T10:51:54.243Z,7.42
2023-11-14T10:54:22.098Z,7.29
2023-11-14T10:56:56.096Z,6.92
2023-11-14T10:59:27.920Z,7.26
2023-11-14T11:01:56.203Z,7.44
2023-11-14T11:04:23.695Z,7.43
2023-11-14T11:06:51.340Z,7.60
2023-11-14T11:09:20.527Z,7.48
2023-11-14T11:11:55.017Z,7.74
2023-11-14T11:14:24.158Z,7.80
2023-11-14T11:16:53.589Z,7.91
2023-11-14T11:19:30.191Z,7.71
2023-11-14T11:22:14.829Z,7.74
2023-11-14T11:25:19.487Z,7.94
2023-11-14T11:27:47.293Z,7.94
2023-11-14T11:30:15.060Z,7.70
2023-11-14T11:32:42.990Z,8.20
2023-11-14T11:35:18.636Z,7.71
2023-11-14T11:37:57.780Z,8.04
2023-11-14T11:40:29.643Z,8.01
2023-11-14T11:43:10.738Z,8.17
2023-11-14T11:45:40.354Z,7.87
2023-11-14T11:48:33.674Z,7.87
2023-11-14T11:51:24.616Z,7.63
2023-11-14T11:53:53.278Z,8.19
2023-11-14T11:56:35.849Z,8.68
2023-11-14T11:59:04.890Z,8.84
2023-11-14T12:01:32.859Z,9.01
2023-11-14T12:04:01.304Z,9.14
2023-11-14T12:06:29.777Z,9.34
2023-11-14T12:08:57.747Z,9.35
2023-11-14T12:11:26.342Z,9.14
2023-11-14T12:13:57.499Z,9.12
2023-11-14T12:16:25.381Z,9.11
2023-11-14T12:18:55.397Z,9.23
2023-11-14T12:21:22.789Z,9.27
2023-11-14T12:23:51.644Z,9.17
2023-11-14T12:26:19.035Z,9.12
2023-11-14T12:28:46.895Z,9.18
2023-11-14T12:31:14.824Z,9.22
2023-11-14T12:33:47.006Z,9.22
2023-11-14T12:36:27.311Z,9.24
2023-11-14T12:38:56.406Z,9.25
2023-11-14T12:41:30.443Z,9.29
2023-11-14T12:44:07.496Z,9.33
2023-11-14T12:46:38.649Z,9.34
2023-11-14T12:49:12.272Z,9.39
2023-11-14T12:51:45.130Z,9.47
2023-11-14T12:54:14.109Z,9.51
2023-11-14T12:56:42.356Z,9.57
2023-11-14T12:59:10.647Z,9.58
2023-11-14T13:01:39.940Z,9.75
2023-11-14T13:04:12.735Z,9.98
2023-11-14T13:06:44.523Z,10.01
2023-11-14T13:09:14.622Z,10.19
2023-11-14T13:11:42.306Z,10.52
2023-11-14T13:14:10.936Z,10.46
2023-11-14T13:16:38.393Z,10.51
2023-11-14T13:19:07.055Z,10.51
2023-11-14T13:21:34.918Z,10.39
2023-11-14T13:24:03.793Z,10.41
2023-11-14T13:26:31.627Z,10.42
2023-11-14T13:28:59.450Z,10.43
2023-11-14T13:31:26.888Z,10.36
2023-11-14T13:33:54.580Z,10.39
2023-11-14T13:36:24.989Z,10.29
2023-11-14T13:38:52.752Z,10.39
2023-11-14T13:41:20.189Z,10.15
2023-11-14T13:43:48.453Z,10.56
2023-11-14T13:46:23.917Z,10.49
2023-11-14T13:48:56.831Z,10.55
2023-11-14T13:51:25.727Z,10.49
2023-11-14T13:53:54.609Z,10.55
2023-11-14T13:56:22.999Z,10.52
2023-11-14T13:58:51.237Z,10.52
2023-11-14T14:01:18.987Z,10.67
2023-11-14T14:03:46.765Z,10.61
2023-11-14T14:06:14.930Z,10.74
2023-11-14T14:08:43.827Z,10.67
2023-11-14T14:11:13.272Z,10.71
2023-11-14T14:13:41.484Z,10.67
2023-11-14T14:16:09.734Z,10.68
2023-11-14T14:18:40.194Z,10.64
2023-11-14T14:21:08.689Z,10.64
2023-11-14T14:23:36.846Z,10.70
2023-11-14T14:26:07.086Z,10.60
2023-11-14T14:28:40.107Z,10.61
2023-11-14T14:31:10.165Z,10.64
2023-11-14T14:33:39.528Z,10.57
2023-11-14T14:36:07.474Z,10.40
2023-11-14T14:38:35.191Z,10.49
2023-11-14T14:41:02.751Z,10.53
2023-11-14T14:43:31.546Z,10.61
2023-11-14T14:45:59.012Z,10.58
2023-11-14T14:48:26.818Z,10.55
2023-11-14T14:50:55.021Z,10.46
2023-11-14T14:53:25.177Z,10.53
2023-11-14T14:55:53.228Z,10.61
2023-11-14T14:58:21.752Z,10.57
2023-11-14T15:00:50.063Z,10.57
2023-11-14T15:03:22.368Z,10.46
2023-11-14T15:05:51.724Z,10.52
2023-11-14T15:08:20.517Z,10.57
2023-11-14T15:10:49.844Z,10.40
2023-11-14T15:13:20.391Z,10.36
2023-11-14T15:15:52.216Z,10.34
2023-11-14T15:18:20.443Z,10.36
2023-11-14T15:20:48.641Z,10.30
2023-11-14T15:23:18.603Z,10.35
2023-11-14T15:25:45.996Z,10.33
2023-11-14T15:28:14.123Z,10.31
2023-11-14T15:30:42.476Z,10.19
2023-11-14T15:33:10.311Z,10.14
2023-11-14T15:35:37.790Z,10.17
2023-11-14T15:38:06.307Z,10.21
2023-11-14T15:40:33.980Z,10.28
2023-11-14T15:43:01.678Z,10.35
2023-11-14T15:45:31.809Z,10.35
2023-11-14T15:47:59.593Z,10.35
2023-11-14T15:50:27.206Z,10.26
2023-11-14T15:52:55.105Z,10.25
2023-11-14T15:55:22.525Z,10.20
2023-11-14T15:57:51.550Z,10.18
2023-11-14T16:00:19.351Z,10.28
2023-11-14T16:02:48.526Z,10.29
2023-11-14T16:05:16.348Z,10.29
2023-11-14T16:07:44.010Z,10.33
2023-11-14T16:10:11.443Z,10.25
2023-11-14T16:12:39.094Z,10.10
2023-11-14T16:15:07.497Z,10.09
2023-11-14T16:17:36.720Z,10.08
2023-11-14T16:20:04.519Z,10.08
2023-11-14T16:22:34.005Z,10.13
2023-11-14T16:25:01.788Z,10.15
2023-11-14T16:27:29.645Z,10.23
2023-11-14T16:29:57.107Z,10.26
2023-11-14T16:32:25.095Z,10.26
2023-11-14T16:34:52.694Z,10.29
2023-11-14T16:37:21.334Z,10.16
2023-11-14T16:39:48.740Z,10.11
2023-11-14T16:42:16.532Z,10.18
2023-11-14T16:44:44.208Z,10.07
2023-11-14T16:47:13.719Z,10.19
2023-11-14T16:49:41.264Z,10.30
2023-11-14T16:52:10.938Z,10.30
2023-11-14T16:54:42.371Z,10.41
2023-11-14T16:57:10.063Z,10.43
2023-11-14T16:59:37.452Z,10.52
2023-11-14T17:02:05.348Z,10.70
2023-11-14T17:04:32.764Z,10.69
2023-11-14T17:07:00.569Z,10.84
2023-11-14T17:09:28.608Z,10.86
2023-11-14T17:11:56.408Z,10.75
2023-11-14T17:14:24.574Z,10.80
2023-11-14T17:16:53.051Z,10.85
2023-11-14T17:19:20.366Z,10.83
2023-11-14T17:21:48.325Z,10.87
2023-11-14T17:24:15.737Z,10.75
2023-11-14T17:26:44.131Z,10.77
2023-11-14T17:29:11.841Z,10.56
2023-11-14T17:31:43.826Z,10.67
2023-11-14T17:34:11.527Z,10.66
2023-11-14T17:36:39.642Z,10.71
2023-11-14T17:39:10.687Z,10.73
2023-11-14T17:41:38.635Z,10.75
2023-11-14T17:44:06.426Z,10.73
2023-11-14T17:46:34.904Z,10.73
2023-11-14T17:49:02.305Z,10.71
2023-11-14T17:51:37.915Z,10.69
2023-11-14T17:54:07.112Z,10.68
2023-11-14T17:56:35.259Z,10.69
2023-11-14T17:59:03.154Z,10.70
2023-11-14T18:01:32.260Z,10.77
2023-11-14T18:04:00.840Z,10.77
2023-11-14T18:06:29.753Z,10.70
2023-11-14T18:08:57.278Z,10.75
2023-11-14T18:11:27.124Z,10.75
2023-11-14T18:13:55.650Z,10.66
2023-11-14T18:16:23.781Z,10.83
2023-11-14T18:18:51.631Z,10.82
2023-11-14T18:21:19.445Z,10.80
2023-11-14T18:23:47.116Z,10.75
2023-11-14T18:26:15.078Z,10.82
2023-11-14T18:28:43.106Z,10.76
2023-11-14T18:31:12.122Z,10.77
2023-11-14T18:33:39.611Z,10.66
2023-11-14T18:36:08.060Z,10.68
2023-11-14T18:38:35.663Z,10.61
2023-11-14T18:41:04.522Z,10.58
2023-11-14T18:43:33.071Z,10.56
2023-11-14T18:46:00.877Z,10.62
2023-11-14T18:48:28.454Z,10.59
2023-11-14T18:50:57.172Z,10.58
2023-11-14T18:53:25.550Z,10.58
2023-11-14T18:55:53.851Z,10.46
2023-11-14T18:58:22.323Z,10.57
2023-11-14T19:00:50.097Z,10.62
2023-11-14T19:03:17.819Z,10.61
2023-11-14T19:05:46.272Z,10.49
2023-11-14T19:08:13.776Z,10.54
2023-11-14T19:10:43.108Z,10.61
2023-11-14T19:13:10.482Z,10.70
2023-11-14T19:15:38.234Z,10.66
2023-11-14T19:18:05.807Z,10.64
2023-11-14T19:20:35.872Z,10.59
2023-11-14T19:23:40.260Z,10.49
2023-11-14T19:25:53.342Z,10.73
2023-11-14T19:28:21.077Z,10.59
2023-11-14T19:30:48.768Z,10.56
2023-11-14T19:33:16.322Z,10.57
2023-11-14T19:35:44.197Z,10.52
2023-11-14T19:38:11.648Z,10.63
2023-11-14T19:40:39.386Z,10.57
2023-11-14T19:43:07.658Z,10.58
2023-11-14T19:45:35.362Z,10.52
2023-11-14T19:48:04.366Z,10.59
2023-11-14T19:50:32.086Z,10.66
2023-11-14T19:52:59.950Z,10.76
2023-11-14T19:55:27.642Z,10.68
2023-11-14T19:57:55.319Z,10.65
2023-11-14T20:00:23.466Z,10.67
2023-11-14T20:02:50.945Z,10.43
2023-11-14T20:05:18.681Z,10.52
2023-11-14T20:07:46.165Z,10.50
2023-11-14T20:10:15.114Z,10.60
2023-11-14T20:12:44.663Z,10.60
2023-11-14T20:15:14.920Z,10.59
2023-11-14T20:17:45.034Z,10.55
2023-11-14T20:20:12.968Z,10.66
2023-11-14T20:22:40.854Z,10.59
2023-11-14T20:25:09.017Z,10.60
2023-11-14T20:27:36.518Z,10.70
2023-11-14T20:30:05.796Z,10.58
2023-11-14T20:32:35.798Z,10.67
2023-11-14T20:35:04.800Z,10.69
2023-11-14T20:37:33.049Z,10.71
2023-11-14T20:40:00.784Z,10.67
2023-11-14T20:42:28.397Z,10.73
2023-11-14T20:44:56.405Z,10.69
2023-11-14T20:47:23.882Z,10.55
2023-11-14T20:49:51.711Z,10.58
2023-11-14T20:52:19.106Z,10.45
2023-11-14T20:54:46.833Z,10.52
2023-11-14T20:57:14.156Z,10.52
2023-11-14T20:59:42.113Z,10.57
2023-11-14T21:02:10.240Z,10.59
2023-11-14T21:04:38.675Z,10.52
2023-11-14T21:07:07.316Z,10.52
2023-11-14T21:09:35.032Z,10.57
2023-11-14T21:12:02.488Z,10.56
2023-11-14T21:14:30.279Z,10.61
2023-11-14T21:16:57.885Z,10.61
2023-11-14T21:19:28.187Z,10.65
2023-11-14T21:21:55.672Z,10.71
2023-11-14T21:24:23.404Z,10.59
2023-11-14T21:26:50.915Z,10.53
2023-11-14T21:29:18.833Z,10.47
2023-11-14T21:31:48.022Z,10.47
2023-11-14T21:34:15.949Z,10.42
2023-11-14T21:36:43.359Z,10.59
2023-11-14T21:39:12.350Z,10.50
2023-11-14T21:41:40.061Z,10.56
2023-11-14T21:44:07.948Z,10.64
2023-11-14T21:46:36.185Z,10.42
2023-11-14T21:49:05.294Z,10.40
2023-11-14T21:51:32.982Z,10.47
2023-11-14T21:54:00.941Z,10.38
2023-11-14T21:56:28.475Z,10.37
2023-11-14T21:58:56.251Z,10.40
2023-11-14T22:01:24.016Z,10.40
2023-11-14T22:03:51.959Z,10.45
2023-11-14T22:06:19.557Z,10.44
2023-11-14T22:08:48.231Z,10.27
2023-11-14T22:11:15.729Z,10.26
2023-11-14T22:13:43.432Z,10.06
2023-11-14T22:16:10.976Z,10.11
2023-11-14T22:18:40.362Z,10.19
2023-11-14T22:21:07.929Z,10.26
2023-11-14T22:23:35.793Z,10.24
2023-11-14T22:26:05.232Z,10.23
2023-11-14T22:28:33.418Z,10.10
2023-11-14T22:31:00.919Z,10.29
2023-11-14T22:33:28.967Z,10.11
2023-11-14T22:35:56.436Z,10.00
2023-11-14T22:38:24.267Z,10.03
2023-11-14T22:40:51.650Z,9.92
2023-11-14T22:43:19.446Z,9.74
2023-11-14T22:45:46.845Z,9.98
2023-11-14T22:48:14.666Z,9.78
2023-11-14T22:50:45.699Z,9.87
2023-11-14T22:53:15.212Z,9.89
2023-11-14T22:55:42.623Z,9.88
2023-11-14T22:58:10.630Z,9.84
2023-11-14T23:00:43.890Z,9.89
2023-11-14T23:03:13.154Z,9.95
2023-11-14T23:05:48.248Z,9.94
2023-11-14T23:08:16.192Z,9.98
2023-11-14T23:10:46.658Z,9.90
2023-11-14T23:13:15.463Z,9.99
2023-11-14T23:15:42.953Z,10.03
2023-11-14T23:18:10.906Z,9.94
2023-11-14T23:20:39.133Z,9.92
2023-11-14T23:23:06.847Z,9.76
2023-11-14T23:25:35.088Z,9.88
2023-11-14T23:28:03.087Z,9.76
2023-11-14T23:30:30.564Z,9.47
2023-11-14T23:32:58.437Z,9.66
2023-11-14T23:35:25.961Z,9.70
2023-11-14T23:37:54.319Z,9.71
2023-11-14T23:40:24.955Z,9.69
2023-11-14T23:42:54.595Z,9.63
2023-11-14T23:45:22.393Z,9.68
2023-11-14T23:47:50.321Z,9.87
2023-11-14T23:50:19.376Z,9.97
2023-11-14T23:52:48.418Z,9.81
2023-11-14T23:55:16.551Z,9.80
2023-11-14T23:57:45.143Z,9.74
